Time;durP1;ratioP1;P1;durP2;ratioP2;P2;SDS_P1;SDS_P2;PMS_P1;PMS_P2;Temp;Humidity;BMP_temperature;BMP_pressure;BME280_temperature;BME280_humidity;BME280_pressure;Samples;Min_cycle;Max_cycle;Signal;HPM_P1;HPM_P2
2023/05/09 00:01:10;;;;;;;30.42;18.77;;;10.80;99.90;;;;;;7562394;19;20034;-74
2023/05/09 00:03:43;;;;;;;29.25;17.65;;;10.70;99.90;;;;;;7567650;19;20025;-74
2023/05/09 00:06:16;;;;;;;33.30;17.88;;;10.70;99.90;;;;;;7557289;19;20017;-74
2023/05/09 00:08:48;;;;;;;26.85;15.85;;;10.60;99.90;;;;;;7576387;19;20618;-75
2023/05/09 00:11:23;;;;;;;28.15;17.02;;;10.50;99.90;;;;;;7549075;19;20074;-74
2023/05/09 00:13:55;;;;;;;31.00;18.42;;;10.40;99.90;;;;;;7561155;19;20019;-74
2023/05/09 00:16:27;;;;;;;28.05;17.25;;;10.40;99.90;;;;;;7567843;19;20112;-75
2023/05/09 00:19:00;;;;;;;27.67;17.75;;;10.40;99.90;;;;;;7574960;19;20018;-74
2023/05/09 00:21:33;;;;;;;29.90;17.30;;;10.30;99.90;;;;;;7565643;19;20029;-74
2023/05/09 00:24:05;;;;;;;26.88;16.33;;;10.30;99.90;;;;;;7569469;19;20018;-74
2023/05/09 00:26:37;;;;;;;31.15;17.88;;;10.30;99.90;;;;;;7576975;19;20910;-75
2023/05/09 00:29:09;;;;;;;30.25;18.80;;;10.30;99.90;;;;;;7578952;19;20022;-74
2023/05/09 00:31:41;;;;;;;35.75;17.20;;;10.20;99.90;;;;;;7561583;19;20053;-74
2023/05/09 00:34:14;;;;;;;31.33;17.73;;;10.20;99.90;;;;;;7556048;19;20591;-75
2023/05/09 00:36:46;;;;;;;36.88;17.60;;;10.10;99.90;;;;;;7562763;19;21146;-74
2023/05/09 00:39:19;;;;;;;31.08;17.27;;;10.10;99.90;;;;;;7547263;19;20026;-75
2023/05/09 00:41:54;;;;;;;30.38;18.40;;;10.10;99.90;;;;;;7557993;19;20625;-75
2023/05/09 00:44:26;;;;;;;30.52;17.60;;;10.00;99.90;;;;;;7581216;19;20010;-75
2023/05/09 00:46:59;;;;;;;30.75;18.50;;;9.90;99.90;;;;;;7554625;19;20681;-75
2023/05/09 00:49:32;;;;;;;34.30;18.13;;;9.90;99.90;;;;;;7572261;19;20331;-75
2023/05/09 00:52:04;;;;;;;28.80;17.63;;;9.90;99.90;;;;;;7567164;19;20039;-75
2023/05/09 00:54:37;;;;;;;27.87;17.43;;;9.80;99.90;;;;;;7547259;19;20284;-75
2023/05/09 00:57:09;;;;;;;32.88;18.77;;;9.80;99.90;;;;;;7540195;19;20025;-75
2023/05/09 00:59:42;;;;;;;31.70;18.15;;;9.80;99.90;;;;;;7558040;19;20344;-75
2023/05/09 01:02:16;;;;;;;34.38;18.10;;;9.70;99.90;;;;;;7532179;19;20014;-75
2023/05/09 01:04:49;;;;;;;34.13;18.38;;;9.70;99.90;;;;;;7554890;19;20669;-74
2023/05/09 01:07:45;;;;;;;31.30;17.55;;;9.70;99.90;;;;;;7576897;19;20018;-74
2023/05/09 01:10:42;;;;;;;37.58;18.48;;;9.60;99.90;;;;;;7567965;19;20093;-74
2023/05/09 01:13:33;;;;;;;29.80;17.17;;;9.50;99.90;;;;;;7550472;19;20119;-75
2023/05/09 01:16:30;;;;;;;33.38;17.92;;;9.40;99.90;;;;;;7559723;19;20041;-75
2023/05/09 01:19:25;;;;;;;28.73;16.65;;;9.30;99.90;;;;;;7555903;19;20823;-75
2023/05/09 01:21:58;;;;;;;;;;;9.30;99.90;;;;;;7547277;19;20097;-75
2023/05/09 01:25:04;;;;;;;30.15;17.10;;;9.10;99.90;;;;;;7558598;19;19922;-75
2023/05/09 01:27:57;;;;;;;28.73;16.90;;;9.10;99.90;;;;;;7536548;19;20547;-75
2023/05/09 01:30:31;;;;;;;25.52;15.60;;;9.20;99.90;;;;;;7553181;19;20014;-75
2023/05/09 01:33:06;;;;;;;29.10;16.40;;;9.20;99.90;;;;;;7563714;19;20014;-75
2023/05/09 01:35:43;;;;;;;28.17;17.13;;;9.20;99.90;;;;;;7571284;19;20010;-75
2023/05/09 01:38:18;;;;;;;30.85;17.27;;;9.20;99.90;;;;;;7552306;19;20049;-75
2023/05/09 01:40:54;;;;;;;25.48;15.48;;;9.20;99.90;;;;;;7551147;19;20896;-75
2023/05/09 01:43:28;;;;;;;27.02;15.00;;;9.10;99.90;;;;;;7557342;19;20424;-75
2023/05/09 01:46:04;;;;;;;28.33;17.45;;;9.10;99.90;;;;;;7538471;19;20216;-75
2023/05/09 01:48:37;;;;;;;29.30;16.92;;;9.10;99.90;;;;;;7575188;19;20019;-75
2023/05/09 01:51:12;;;;;;;31.55;16.98;;;9.00;99.90;;;;;;7556726;19;20011;-75
2023/05/09 01:53:46;;;;;;;31.77;17.38;;;9.00;99.90;;;;;;7570138;19;20019;-74
2023/05/09 01:56:21;;;;;;;27.20;16.73;;;9.00;99.90;;;;;;7563108;19;20074;-75
2023/05/09 01:58:55;;;;;;;29.77;16.92;;;9.00;99.90;;;;;;7534446;19;20749;-75
2023/05/09 02:01:29;;;;;;;30.15;17.67;;;9.00;99.90;;;;;;7557457;19;20026;-75
2023/05/09 02:04:02;;;;;;;;;;;8.90;99.90;;;;;;7552553;19;20021;-75
2023/05/09 02:06:35;;;;;;;25.65;15.32;;;8.80;99.90;;;;;;7588170;19;19926;-75
2023/05/09 02:09:07;;;;;;;28.13;16.88;;;8.80;99.90;;;;;;7576477;19;20014;-74
2023/05/09 02:11:40;;;;;;;31.85;17.45;;;8.80;99.90;;;;;;7572508;19;20577;-74
2023/05/09 02:14:13;;;;;;;26.98;16.83;;;8.80;99.90;;;;;;7587236;19;20965;-74
2023/05/09 02:16:45;;;;;;;28.05;16.20;;;8.70;99.90;;;;;;7575716;19;20019;-74
2023/05/09 02:19:17;;;;;;;29.23;17.38;;;8.80;99.90;;;;;;7553609;19;20199;-74
2023/05/09 02:21:50;;;;;;;28.33;17.02;;;8.80;99.90;;;;;;7558096;19;20408;-75
2023/05/09 02:24:22;;;;;;;29.48;17.00;;;8.80;99.90;;;;;;7545384;19;23076;-74
2023/05/09 02:26:55;;;;;;;28.83;16.40;;;8.80;99.90;;;;;;7547499;19;20528;-74
2023/05/09 02:29:39;;;;;;;29.85;17.85;;;8.70;99.90;;;;;;7556241;19;20019;-75
2023/05/09 02:32:15;;;;;;;33.13;18.63;;;8.60;99.90;;;;;;7578094;19;20024;-75
2023/05/09 02:34:53;;;;;;;29.35;17.63;;;8.50;99.90;;;;;;7544071;19;20018;-75
2023/05/09 02:37:26;;;;;;;30.42;17.33;;;8.40;99.90;;;;;;7578217;19;20177;-75
2023/05/09 02:39:59;;;;;;;27.67;16.52;;;8.40;99.90;;;;;;7543327;19;20014;-75
2023/05/09 02:42:31;;;;;;;32.42;18.30;;;8.40;99.90;;;;;;7562723;19;20019;-74
2023/05/09 02:45:06;;;;;;;26.10;15.57;;;8.40;99.90;;;;;;7567537;19;20018;-75
2023/05/09 02:47:39;;;;;;;33.40;17.42;;;8.40;99.90;;;;;;7564591;19;20013;-75
2023/05/09 02:50:12;;;;;;;29.25;16.27;;;8.40;99.90;;;;;;7570131;19;20094;-74
2023/05/09 02:52:44;;;;;;;28.58;16.55;;;8.40;99.90;;;;;;7555727;19;20019;-75
2023/05/09 02:55:16;;;;;;;30.38;15.15;;;8.30;99.90;;;;;;7533011;19;20664;-75
2023/05/09 02:57:50;;;;;;;28.92;17.05;;;8.30;99.90;;;;;;7545243;19;20050;-75
2023/05/09 03:00:36;;;;;;;31.92;16.85;;;8.30;99.90;;;;;;7559850;19;20641;-74
2023/05/09 03:03:10;;;;;;;28.20;16.60;;;8.40;99.90;;;;;;7571399;19;20022;-75
2023/05/09 03:05:42;;;;;;;25.93;16.37;;;8.40;99.90;;;;;;7580884;19;21078;-75
2023/05/09 03:08:14;;;;;;;28.08;16.35;;;8.40;99.90;;;;;;7595873;19;20022;-75
2023/05/09 03:10:48;;;;;;;28.90;17.02;;;8.40;99.90;;;;;;7566719;19;20896;-75
2023/05/09 03:13:20;;;;;;;28.20;16.70;;;8.40;99.90;;;;;;7572882;19;20034;-75
2023/05/09 03:15:53;;;;;;;25.55;15.98;;;8.40;99.90;;;;;;7579567;19;20344;-74
2023/05/09 03:18:25;;;;;;;29.47;17.17;;;8.40;99.90;;;;;;7584697;19;20018;-75
2023/05/09 03:20:58;;;;;;;28.25;15.85;;;8.40;99.90;;;;;;7567940;19;20023;-75
2023/05/09 03:23:31;;;;;;;33.43;16.30;;;8.40;99.90;;;;;;7593519;19;20014;-75
2023/05/09 03:26:03;;;;;;;26.70;16.65;;;8.40;99.90;;;;;;7572901;19;21088;-75
2023/05/09 03:28:37;;;;;;;28.05;16.95;;;8.30;99.90;;;;;;7585067;19;20640;-75
2023/05/09 03:31:10;;;;;;;31.48;17.33;;;8.30;99.90;;;;;;7588883;19;20055;-75
2023/05/09 03:33:43;;;;;;;34.03;18.17;;;8.20;99.90;;;;;;7584593;19;20027;-74
2023/05/09 03:36:16;;;;;;;27.48;16.20;;;8.20;99.90;;;;;;7590052;19;20029;-75
2023/05/09 03:38:48;;;;;;;32.83;17.10;;;8.10;99.90;;;;;;7560821;19;20018;-75
2023/05/09 03:41:25;;;;;;;29.83;16.23;;;8.10;99.90;;;;;;7600921;19;20500;-75
2023/05/09 03:43:57;;;;;;;29.40;16.75;;;8.10;99.90;;;;;;7585153;19;20523;-74
2023/05/09 03:46:29;;;;;;;29.70;16.23;;;8.10;99.90;;;;;;7587054;19;20026;-75
2023/05/09 03:49:03;;;;;;;29.77;16.17;;;8.10;99.90;;;;;;7569857;19;20010;-75
2023/05/09 03:51:36;;;;;;;26.63;16.13;;;8.10;99.90;;;;;;7578745;19;20476;-75
2023/05/09 03:54:15;;;;;;;31.13;15.85;;;8.10;99.90;;;;;;7574879;19;20679;-76
2023/05/09 03:56:47;;;;;;;26.05;14.68;;;8.00;99.90;;;;;;7580851;19;20023;-78
2023/05/09 03:59:20;;;;;;;28.10;15.90;;;8.10;99.90;;;;;;7587375;19;20014;-79
2023/05/09 04:01:52;;;;;;;24.10;14.30;;;8.10;99.90;;;;;;7550503;19;20022;-80
2023/05/09 04:04:28;;;;;;;33.15;14.90;;;8.00;99.90;;;;;;7553317;19;22121;-81
2023/05/09 04:07:01;;;;;;;27.17;14.97;;;8.00;99.90;;;;;;7578309;19;20011;-79
2023/05/09 04:09:33;;;;;;;26.10;15.98;;;8.00;99.90;;;;;;7578738;19;20527;-80
2023/05/09 04:12:06;;;;;;;25.80;14.93;;;7.90;99.90;;;;;;7566875;19;21401;-83
2023/05/09 04:14:38;;;;;;;29.00;15.73;;;7.90;99.90;;;;;;7572221;19;20025;-80
2023/05/09 04:17:11;;;;;;;27.00;15.35;;;7.90;99.90;;;;;;7574878;19;20022;-83
2023/05/09 04:19:44;;;;;;;28.05;15.50;;;7.90;99.90;;;;;;7568198;19;20007;-80
2023/05/09 04:22:17;;;;;;;31.55;15.68;;;7.80;99.90;;;;;;7555399;19;20015;-83
2023/05/09 04:24:50;;;;;;;26.17;14.50;;;7.80;99.90;;;;;;7564474;19;20018;-82
2023/05/09 04:27:22;;;;;;;26.38;14.27;;;7.80;99.90;;;;;;7569100;19;20049;-81
2023/05/09 04:29:55;;;;;;;21.85;13.50;;;7.90;99.90;;;;;;7591246;19;20014;-80
2023/05/09 04:32:28;;;;;;;24.35;14.63;;;7.90;99.90;;;;;;7557024;19;20912;-79
2023/05/09 04:35:00;;;;;;;22.38;12.90;;;8.00;99.90;;;;;;7582711;19;20022;-82
2023/05/09 04:37:36;;;;;;;24.67;14.50;;;8.00;99.90;;;;;;7587461;19;20014;-81
2023/05/09 04:40:10;;;;;;;25.13;15.90;;;8.00;99.90;;;;;;7571985;19;22140;-81
2023/05/09 04:42:52;;;;;;;24.20;14.77;;;7.90;99.90;;;;;;7557197;19;20071;-81
2023/05/09 04:45:28;;;;;;;27.27;15.00;;;8.00;99.90;;;;;;7579831;19;20106;-81
2023/05/09 04:48:02;;;;;;;26.30;14.60;;;8.10;99.90;;;;;;7541644;19;20025;-79
2023/05/09 04:50:35;;;;;;;24.35;15.02;;;8.20;99.90;;;;;;7548325;19;20029;-80
2023/05/09 04:53:07;;;;;;;23.40;13.95;;;8.30;99.90;;;;;;7558993;19;20027;-83
2023/05/09 04:55:40;;;;;;;26.02;15.55;;;8.30;99.90;;;;;;7573365;19;20022;-80
2023/05/09 04:58:12;;;;;;;29.83;17.83;;;8.30;99.90;;;;;;7561428;19;20014;-80
2023/05/09 05:00:45;;;;;;;32.75;17.48;;;8.40;99.90;;;;;;7533484;19;20557;-83
2023/05/09 05:03:20;;;;;;;27.30;16.17;;;8.50;99.90;;;;;;7522994;19;20045;-82
2023/05/09 05:05:53;;;;;;;28.23;15.50;;;8.60;99.90;;;;;;7516787;19;20025;-84
2023/05/09 05:08:25;;;;;;;30.93;18.53;;;8.70;99.90;;;;;;7565198;19;20011;-79
2023/05/09 05:10:58;;;;;;;30.33;18.13;;;8.80;99.90;;;;;;7535837;19;20015;-78
2023/05/09 05:13:31;;;;;;;35.92;20.05;;;8.90;99.90;;;;;;7543940;19;20015;-80
2023/05/09 05:16:05;;;;;;;32.72;19.50;;;8.90;99.90;;;;;;7547295;19;20015;-81
2023/05/09 05:18:38;;;;;;;30.40;17.93;;;9.00;99.90;;;;;;7535675;19;20015;-81
2023/05/09 05:21:11;;;;;;;32.20;18.60;;;9.10;99.90;;;;;;7536576;19;21169;-80
2023/05/09 05:23:44;;;;;;;32.05;19.95;;;9.20;99.90;;;;;;7535050;19;20018;-82
2023/05/09 05:26:18;;;;;;;30.50;19.35;;;9.30;99.90;;;;;;7559701;19;20213;-81
2023/05/09 05:28:54;;;;;;;37.20;19.33;;;9.40;99.90;;;;;;7528181;19;20053;-81
2023/05/09 05:31:27;;;;;;;32.38;19.60;;;9.50;99.90;;;;;;7556760;19;20014;-84
2023/05/09 05:34:00;;;;;;;30.23;18.03;;;9.60;99.90;;;;;;7484239;19;20014;-83
2023/05/09 05:36:35;;;;;;;30.73;18.23;;;9.70;99.90;;;;;;7557970;19;20806;-81
2023/05/09 05:39:08;;;;;;;33.42;19.52;;;9.70;99.90;;;;;;7574051;19;20023;-78
2023/05/09 05:41:40;;;;;;;28.60;18.70;;;9.90;99.90;;;;;;7576308;19;20014;-80
2023/05/09 05:44:12;;;;;;;27.52;17.30;;;10.00;99.90;;;;;;7579057;19;20017;-84
2023/05/09 05:46:45;;;;;;;28.37;18.10;;;10.10;99.90;;;;;;7587395;19;20015;-80
2023/05/09 05:49:18;;;;;;;23.73;16.60;;;10.20;99.90;;;;;;7591407;19;20419;-82
2023/05/09 05:51:50;;;;;;;27.23;16.35;;;10.30;99.90;;;;;;7579094;19;20275;-78
2023/05/09 05:54:23;;;;;;;25.08;16.95;;;10.40;99.90;;;;;;7572609;19;20026;-80
2023/05/09 05:56:58;;;;;;;27.08;17.65;;;10.50;99.90;;;;;;7576509;19;20018;-82
2023/05/09 05:59:31;;;;;;;27.48;16.73;;;10.70;99.90;;;;;;7592469;19;20081;-80
2023/05/09 06:02:03;;;;;;;28.75;17.13;;;10.80;99.90;;;;;;7590602;19;20022;-80
2023/05/09 06:04:37;;;;;;;27.15;16.67;;;10.90;99.90;;;;;;7581661;19;20041;-79
2023/05/09 06:07:11;;;;;;;25.60;16.70;;;11.00;99.90;;;;;;7593108;19;20049;-80
2023/05/09 06:09:44;;;;;;;25.92;15.75;;;11.10;99.90;;;;;;7586134;19;20018;-81
2023/05/09 06:12:16;;;;;;;26.90;16.33;;;11.20;99.90;;;;;;7588035;19;20026;-80
2023/05/09 06:14:48;;;;;;;24.65;15.77;;;11.30;99.90;;;;;;7575789;19;20029;-81
2023/05/09 06:17:21;;;;;;;24.33;16.50;;;11.40;99.90;;;;;;7577762;19;20018;-79
2023/05/09 06:19:54;;;;;;;28.63;17.33;;;11.50;99.90;;;;;;7583113;19;20018;-78
2023/05/09 06:22:26;;;;;;;28.00;15.80;;;11.60;99.90;;;;;;7593899;19;20017;-81
2023/05/09 06:24:58;;;;;;;27.08;16.52;;;11.70;99.90;;;;;;7591185;19;20025;-81
2023/05/09 06:27:30;;;;;;;23.45;15.85;;;11.80;99.90;;;;;;7598651;19;20018;-79
2023/05/09 06:30:03;;;;;;;26.90;15.98;;;11.90;99.90;;;;;;7574288;19;20018;-80
2023/05/09 06:32:48;;;;;;;26.83;16.95;;;12.00;99.90;;;;;;7585396;19;20020;-78
2023/05/09 06:35:21;;;;;;;27.80;15.88;;;12.10;99.90;;;;;;7594762;19;20022;-77
2023/05/09 06:37:53;;;;;;;22.10;14.35;;;12.20;99.90;;;;;;7593056;19;20028;-81
2023/05/09 06:40:26;;;;;;;23.42;15.23;;;12.40;99.90;;;;;;7565621;19;20064;-80
2023/05/09 06:42:58;;;;;;;26.13;15.05;;;12.50;99.90;;;;;;7575606;19;20968;-79
2023/05/09 06:45:30;;;;;;;25.30;15.07;;;12.70;99.90;;;;;;7580123;19;20666;-79
2023/05/09 06:48:03;;;;;;;22.65;14.60;;;12.90;99.90;;;;;;7572383;19;20017;-80
2023/05/09 06:50:35;;;;;;;23.80;15.60;;;13.00;99.90;;;;;;7571284;19;22613;-78
2023/05/09 06:53:08;;;;;;;22.63;15.63;;;13.20;99.90;;;;;;7575920;19;20825;-82
2023/05/09 06:55:41;;;;;;;26.55;16.25;;;13.30;99.90;;;;;;7589836;19;20045;-81
2023/05/09 06:58:13;;;;;;;25.70;15.97;;;13.40;99.90;;;;;;7586509;19;20350;-73
2023/05/09 07:00:46;;;;;;;27.17;15.98;;;13.50;99.90;;;;;;7588729;19;20118;-73
2023/05/09 07:03:19;;;;;;;21.95;15.30;;;13.50;99.90;;;;;;7570243;19;20027;-75
2023/05/09 07:05:51;;;;;;;21.23;14.97;;;13.60;99.90;;;;;;7581103;19;20018;-73
2023/05/09 07:08:24;;;;;;;27.40;16.38;;;13.70;99.90;;;;;;7585878;19;20007;-75
2023/05/09 07:10:57;;;;;;;25.58;15.60;;;13.80;99.90;;;;;;7580929;19;20022;-74
2023/05/09 07:13:29;;;;;;;32.27;18.67;;;14.00;99.90;;;;;;7584364;19;20105;-74
2023/05/09 07:16:02;;;;;;;25.52;16.58;;;14.10;99.90;;;;;;7578922;19;20283;-79
2023/05/09 07:18:35;;;;;;;24.25;16.25;;;14.30;99.90;;;;;;7592941;19;20026;-74
2023/05/09 07:21:08;;;;;;;26.38;16.10;;;14.40;99.90;;;;;;7577081;19;20014;-81
2023/05/09 07:23:40;;;;;;;26.85;17.20;;;14.70;99.90;;;;;;7595398;19;20011;-80
2023/05/09 07:26:12;;;;;;;25.33;16.48;;;14.80;99.90;;;;;;7563551;19;20070;-78
2023/05/09 07:28:44;;;;;;;21.65;13.70;;;14.90;99.90;;;;;;7583290;19;20021;-79
2023/05/09 07:31:16;;;;;;;22.40;15.00;;;15.00;99.90;;;;;;7589845;19;20014;-81
2023/05/09 07:33:48;;;;;;;19.80;12.90;;;15.20;99.90;;;;;;7591894;19;20530;-75
2023/05/09 07:36:21;;;;;;;21.60;15.05;;;15.40;99.90;;;;;;7573574;19;20021;-73
2023/05/09 07:38:53;;;;;;;24.40;14.15;;;15.50;99.90;;;;;;7577518;19;20018;-75
2023/05/09 07:41:25;;;;;;;22.05;14.18;;;15.50;99.90;;;;;;7575377;19;20109;-75
2023/05/09 07:43:57;;;;;;;21.75;13.70;;;15.50;99.90;;;;;;7588045;19;20010;-74
2023/05/09 07:46:30;;;;;;;20.67;12.95;;;15.70;99.90;;;;;;7576717;19;20105;-74
2023/05/09 07:49:02;;;;;;;18.02;12.63;;;15.80;99.90;;;;;;7581315;19;20029;-75
2023/05/09 07:51:35;;;;;;;20.45;12.70;;;15.90;99.90;;;;;;7593441;19;20078;-74
2023/05/09 07:54:08;;;;;;;19.80;11.63;;;15.80;99.90;;;;;;7581844;19;20014;-75
2023/05/09 07:56:41;;;;;;;18.08;12.50;;;15.90;99.90;;;;;;7583902;19;20022;-75
2023/05/09 07:59:13;;;;;;;18.73;12.87;;;16.00;99.90;;;;;;7573013;19;20365;-73
2023/05/09 08:01:46;;;;;;;20.33;12.43;;;16.00;99.90;;;;;;7580395;19;20082;-74
2023/05/09 08:04:18;;;;;;;21.33;13.35;;;16.10;99.90;;;;;;7572372;19;20022;-75
2023/05/09 08:06:50;;;;;;;18.23;12.73;;;16.10;99.90;;;;;;7571907;19;20015;-74
2023/05/09 08:09:23;;;;;;;15.80;11.23;;;16.00;99.90;;;;;;7580832;19;20064;-76
2023/05/09 08:11:55;;;;;;;20.33;12.38;;;16.30;99.90;;;;;;7580763;19;20018;-75
2023/05/09 08:14:28;;;;;;;17.52;12.52;;;16.30;99.90;;;;;;7578641;19;20022;-75
2023/05/09 08:17:00;;;;;;;17.60;12.02;;;16.50;99.90;;;;;;7590197;19;20010;-75
2023/05/09 08:19:33;;;;;;;19.58;12.80;;;16.50;99.90;;;;;;7574459;19;20488;-74
2023/05/09 08:22:05;;;;;;;19.63;11.52;;;16.60;99.90;;;;;;7565461;19;20498;-76
2023/05/09 08:24:38;;;;;;;19.87;11.53;;;16.70;99.80;;;;;;7592761;19;20025;-75
2023/05/09 08:27:12;;;;;;;18.67;11.93;;;16.70;99.90;;;;;;7587222;19;20275;-74
2023/05/09 08:29:44;;;;;;;20.17;12.07;;;16.70;99.60;;;;;;7593948;19;20098;-74
2023/05/09 08:32:18;;;;;;;15.93;11.10;;;16.80;99.30;;;;;;7601183;19;20018;-75
2023/05/09 08:34:51;;;;;;;15.77;12.00;;;16.90;99.20;;;;;;7577516;19;20029;-75
2023/05/09 08:37:23;;;;;;;18.65;11.00;;;16.70;98.80;;;;;;7574902;19;20633;-74
2023/05/09 08:39:56;;;;;;;19.23;11.50;;;16.60;99.50;;;;;;7582391;19;20014;-74
2023/05/09 08:42:30;;;;;;;14.90;11.15;;;16.50;99.10;;;;;;7579585;19;20620;-74
2023/05/09 08:45:09;;;;;;;17.35;11.02;;;16.40;99.10;;;;;;7574788;19;20526;-74
2023/05/09 08:47:42;;;;;;;14.20;9.60;;;16.50;99.30;;;;;;7599943;19;20014;-75
2023/05/09 08:50:16;;;;;;;13.18;9.63;;;16.70;99.80;;;;;;7574287;19;20019;-74
2023/05/09 08:52:50;;;;;;;15.57;10.15;;;16.90;99.70;;;;;;7589390;19;20064;-74
2023/05/09 08:55:23;;;;;;;15.75;10.05;;;17.10;99.50;;;;;;7590663;19;20018;-73
2023/05/09 08:57:57;;;;;;;12.85;9.90;;;17.20;98.40;;;;;;7584504;19;20035;-74
2023/05/09 09:00:30;;;;;;;;;;;17.20;98.50;;;;;;7590967;19;20018;-74
2023/05/09 09:03:06;;;;;;;14.63;9.27;;;17.30;97.60;;;;;;7596052;19;19922;-74
2023/05/09 09:05:41;;;;;;;13.45;10.20;;;17.40;97.90;;;;;;7599693;19;20011;-76
2023/05/09 09:08:14;;;;;;;14.88;9.60;;;17.40;96.50;;;;;;7584513;19;21100;-76
2023/05/09 09:10:47;;;;;;;15.07;9.75;;;17.30;97.70;;;;;;7575306;19;20400;-74
2023/05/09 09:13:19;;;;;;;12.93;8.45;;;17.30;96.90;;;;;;7591141;19;21398;-74
2023/05/09 09:15:53;;;;;;;14.63;9.65;;;17.40;98.10;;;;;;7593104;19;20090;-75
2023/05/09 09:18:28;;;;;;;;;;;17.60;97.40;;;;;;7590787;19;20024;-74
2023/05/09 09:21:08;;;;;;;15.73;10.52;;;17.60;95.80;;;;;;7574938;19;19961;-73
2023/05/09 09:23:42;;;;;;;17.80;10.52;;;17.60;97.40;;;;;;7598344;19;20029;-75
2023/05/09 09:26:14;;;;;;;17.40;11.88;;;17.70;97.20;;;;;;7580742;19;20433;-73
2023/05/09 09:28:47;;;;;;;17.13;11.57;;;17.70;96.80;;;;;;7582419;19;20101;-74
2023/05/09 09:31:24;;;;;;;16.88;10.57;;;17.70;96.30;;;;;;7590641;19;20030;-76
2023/05/09 09:34:01;;;;;;;18.65;12.00;;;17.80;96.30;;;;;;7594957;19;20021;-75
2023/05/09 09:36:35;;;;;;;18.77;11.90;;;17.80;95.50;;;;;;7586395;19;20011;-73
2023/05/09 09:39:08;;;;;;;16.02;11.45;;;17.90;95.60;;;;;;7558233;19;20018;-74
2023/05/09 09:41:41;;;;;;;17.17;12.10;;;18.00;96.30;;;;;;7529573;19;20052;-74
2023/05/09 09:44:16;;;;;;;16.73;11.63;;;18.00;95.80;;;;;;7575882;19;21019;-74
2023/05/09 09:46:53;;;;;;;16.38;10.25;;;18.00;95.60;;;;;;7575865;19;20038;-74
2023/05/09 09:49:26;;;;;;;15.98;11.48;;;18.10;95.70;;;;;;7579684;19;20521;-75
2023/05/09 09:51:58;;;;;;;17.35;11.25;;;18.20;94.90;;;;;;7570199;19;20022;-73
2023/05/09 09:54:31;;;;;;;16.23;11.40;;;18.20;94.90;;;;;;7548990;19;21220;-75
2023/05/09 09:57:03;;;;;;;16.73;10.87;;;18.20;94.10;;;;;;7587870;19;20078;-74
2023/05/09 09:59:35;;;;;;;17.30;11.20;;;18.20;94.10;;;;;;7568139;19;20014;-74
2023/05/09 10:02:11;;;;;;;17.77;11.32;;;18.20;94.30;;;;;;7541780;19;20470;-74
2023/05/09 10:04:43;;;;;;;15.60;10.63;;;18.20;93.70;;;;;;7570263;19;20011;-75
2023/05/09 10:07:18;;;;;;;13.50;9.50;;;18.30;94.80;;;;;;7589720;19;20022;-73
2023/05/09 10:09:50;;;;;;;15.02;9.73;;;18.50;94.50;;;;;;7582681;19;20993;-73
2023/05/09 10:12:23;;;;;;;16.15;10.93;;;18.70;93.60;;;;;;7579236;19;20615;-74
2023/05/09 10:14:55;;;;;;;13.65;10.15;;;18.80;92.50;;;;;;7579202;19;20756;-73
2023/05/09 10:17:30;;;;;;;14.90;10.30;;;18.80;92.00;;;;;;7570014;19;20813;-73
2023/05/09 10:20:05;;;;;;;16.08;9.35;;;19.10;91.10;;;;;;7586841;19;20640;-74
2023/05/09 10:22:39;;;;;;;16.83;10.65;;;19.00;91.50;;;;;;7533538;19;20022;-73
2023/05/09 10:25:21;;;;;;;15.48;9.93;;;19.00;90.90;;;;;;7554345;19;20320;-72
2023/05/09 10:27:59;;;;;;;15.55;10.27;;;19.10;91.20;;;;;;7578227;19;20014;-73
2023/05/09 10:30:34;;;;;;;15.07;9.80;;;19.30;90.40;;;;;;7557411;19;20566;-75
2023/05/09 10:33:09;;;;;;;15.25;10.70;;;19.60;89.40;;;;;;7576115;19;20023;-76
2023/05/09 10:35:45;;;;;;;14.18;10.73;;;19.50;88.80;;;;;;7571153;19;20039;-73
2023/05/09 10:38:18;;;;;;;20.55;12.52;;;19.60;90.10;;;;;;7555514;19;20015;-74
2023/05/09 10:40:52;;;;;;;17.50;13.10;;;19.60;90.30;;;;;;7557360;19;20010;-73
2023/05/09 10:43:26;;;;;;;19.77;13.00;;;19.80;90.20;;;;;;7565131;19;20014;-73
2023/05/09 10:45:58;;;;;;;;;;;19.90;89.50;;;;;;7572395;19;20024;-74
2023/05/09 10:48:33;;;;;;;17.77;12.95;;;20.00;90.20;;;;;;7561554;19;19922;-74
2023/05/09 10:51:07;;;;;;;16.92;13.02;;;;;;;;;;7554490;19;22396;-73
2023/05/09 10:53:43;;;;;;;19.55;12.73;;;;;;;;;;7550396;19;20022;-74
2023/05/09 10:56:26;;;;;;;20.75;14.18;;;;;;;;;;7530104;19;20017;-72
2023/05/09 10:58:59;;;;;;;18.10;13.38;;;;;;;;;;7566689;19;20014;-73
2023/05/09 11:01:35;;;;;;;19.90;13.95;;;;;;;;;;7559227;19;20857;-74
2023/05/09 11:04:10;;;;;;;17.85;13.43;;;;;;;;;;7579345;19;20025;-73
2023/05/09 11:06:50;;;;;;;11.75;8.95;;;;;;;;;;7535656;19;20102;-73
2023/05/09 11:09:28;;;;;;;13.20;8.75;;;;;;;;;;7555015;19;20014;-72
2023/05/09 11:12:07;;;;;;;18.40;11.10;;;;;;;;;;7553613;19;20010;-75
2023/05/09 11:14:44;;;;;;;15.27;11.52;;;;;;;;;;7559047;19;20022;-73
2023/05/09 11:17:23;;;;;;;13.52;10.63;;;;;;;;;;7567078;19;20052;-72
2023/05/09 11:19:58;;;;;;;16.40;11.82;;;;;;;;;;7566614;19;20010;-74
2023/05/09 11:22:43;;;;;;;21.98;14.35;;;20.20;86.60;;;;;;7581045;19;20509;-74
2023/05/09 11:25:16;;;;;;;17.15;11.65;;;23.80;69.80;;;;;;7553681;19;20098;-75
2023/05/09 11:27:49;;;;;;;29.80;14.88;;;23.50;70.10;;;;;;7571908;19;20071;-75
2023/05/09 11:30:21;;;;;;;19.60;13.13;;;23.60;69.60;;;;;;7558107;19;20034;-73
2023/05/09 11:32:56;;;;;;;17.75;13.30;;;23.70;68.90;;;;;;7559877;19;20070;-73
2023/05/09 11:35:29;;;;;;;19.42;14.48;;;23.70;68.80;;;;;;7513679;19;20018;-75
2023/05/09 11:38:04;;;;;;;20.60;14.35;;;23.70;68.70;;;;;;7555159;19;20689;-75
2023/05/09 11:40:38;;;;;;;23.77;14.63;;;23.70;68.40;;;;;;7530917;19;21134;-74
2023/05/09 11:43:11;;;;;;;18.70;14.70;;;23.70;69.40;;;;;;7534741;19;20502;-73
2023/05/09 11:45:45;;;;;;;16.20;12.05;;;23.80;69.10;;;;;;7544429;19;20018;-75
2023/05/09 11:48:21;;;;;;;;;;;24.00;67.20;;;;;;7548057;19;20082;-73
2023/05/09 11:50:53;;;;;;;18.48;11.98;;;24.10;65.30;;;;;;7519059;19;19915;-74
2023/05/09 11:53:26;;;;;;;20.67;14.75;;;24.40;67.80;;;;;;7526115;19;21301;-73
2023/05/09 11:56:03;;;;;;;19.83;14.02;;;24.30;65.90;;;;;;7499130;19;20833;-73
2023/05/09 11:58:38;;;;;;;20.25;14.50;;;24.30;65.70;;;;;;7540166;19;20617;-76
2023/05/09 12:01:11;;;;;;;17.52;13.10;;;24.60;66.20;;;;;;7513226;19;20097;-74
2023/05/09 12:03:44;;;;;;;18.40;12.77;;;24.80;65.10;;;;;;7503405;19;20676;-73
2023/05/09 12:06:18;;;;;;;19.15;14.35;;;24.70;64.40;;;;;;7509173;19;20049;-73
2023/05/09 12:08:51;;;;;;;18.70;14.35;;;24.90;63.40;;;;;;7518743;19;21360;-74
2023/05/09 12:11:24;;;;;;;18.45;13.45;;;24.90;64.00;;;;;;6997373;19;10000350;-73
2023/05/09 12:13:58;;;;;;;17.95;13.15;;;;;;;;;;7522024;19;20017;-73
2023/05/09 12:16:31;;;;;;;20.15;14.45;;;;;;;;;;7505441;19;20106;-75
2023/05/09 12:19:04;;;;;;;19.42;13.65;;;25.00;63.70;;;;;;7533788;19;20114;-76
2023/05/09 12:21:39;;;;;;;15.43;12.23;;;;;;;;;;7566845;19;20018;-74
2023/05/09 12:24:12;;;;;;;27.20;13.95;;;;;;;;;;7540294;19;20017;-75
2023/05/09 12:26:45;;;;;;;19.23;14.90;;;;;;;;;;7516252;19;20014;-74
2023/05/09 12:29:17;;;;;;;21.02;15.35;;;;;;;;;;7555603;19;20025;-74
2023/05/09 12:31:53;;;;;;;16.65;13.48;;;;;;;;;;7519272;19;20047;-75
2023/05/09 12:34:26;;;;;;;17.02;13.68;;;;;;;;;;7535364;19;20026;-74
2023/05/09 12:37:02;;;;;;;17.10;14.05;;;;;;;;;;7529691;19;20022;-74
2023/05/09 12:39:35;;;;;;;15.52;12.40;;;;;;;;;;7551598;19;21350;-73
2023/05/09 12:42:13;;;;;;;16.45;12.73;;;;;;;;;;7556367;19;20041;-74
2023/05/09 12:44:47;;;;;;;19.92;12.48;;;;;;;;;;7542397;19;20153;-74
2023/05/09 12:47:20;;;;;;;18.83;12.38;;;;;;;;;;7538719;19;20042;-73
2023/05/09 12:49:56;;;;;;;18.77;13.13;;;;;;;;;;7556294;19;20010;-73
2023/05/09 12:52:35;;;;;;;19.15;13.43;;;;;;;;;;7549296;19;20014;-73
2023/05/09 12:55:19;;;;;;;17.63;13.13;;;;;;;;;;7534785;19;20125;-73
2023/05/09 12:58:00;;;;;;;17.38;12.15;;;;;;;;;;7544417;19;20097;-73
2023/05/09 13:00:43;;;;;;;12.07;9.10;;;;;;;;;;7552864;19;20045;-75
2023/05/09 13:03:19;;;;;;;14.85;8.88;;;;;;;;;;7553330;19;21183;-75
2023/05/09 13:05:59;;;;;;;10.10;8.02;;;;;;;;;;7560683;19;20022;-76
2023/05/09 13:08:32;;;;;;;9.95;7.22;;;;;;;;;;7559888;19;20018;-75
2023/05/09 13:11:06;;;;;;;11.02;7.40;;;;;;;;;;7559837;19;20871;-74
2023/05/09 13:13:47;;;;;;;7.70;6.57;;;;;;;;;;7579249;19;21688;-75
2023/05/09 13:16:20;;;;;;;13.15;7.32;;;;;;;;;;7539490;19;20014;-75
2023/05/09 13:18:53;;;;;;;7.80;6.72;;;;;;;;;;7573110;19;20018;-76
2023/05/09 13:21:26;;;;;;;10.40;8.40;;;;;;;;;;7556426;19;20077;-74